sensor_id;sensor_type;location;lat;lon;timestamp;pressure;altitude;pressure_sealevel;temperature;humidity
4972;BME280;2501;51.214;6.768;2023-12-29T00:00:27;100725.56;;;10.23;100.00
4972;BME280;2501;51.214;6.768;2023-12-29T00:02:56;100727.31;;;10.19;100.00
4972;BME280;2501;51.214;6.768;2023-12-29T00:05:24;100728.19;;;10.23;100.00
4972;BME280;2501;51.214;6.768;2023-12-29T00:07:53;100728.19;;;10.23;100.00
4972;BME280;2501;51.214;6.768;2023-12-29T00:10:19;100722.97;;;10.21;100.00
4972;BME280;2501;51.214;6.768;2023-12-29T00:12:47;100722.09;;;10.27;100.00
4972;BME280;2501;51.214;6.768;2023-12-29T00:15:19;100711.72;;;10.39;100.00
4972;BME280;2501;51.214;6.768;2023-12-29T00:17:48;100714.22;;;10.24;100.00
4972;BME280;2501;51.214;6.768;2023-12-29T00:20:18;100709.84;;;10.21;100.00
4972;BME280;2501;51.214;6.768;2023-12-29T00:22:46;100717.75;;;10.29;100.00
4972;BME280;2501;51.214;6.768;2023-12-29T00:25:15;100710.91;;;10.51;100.00
4972;BME280;2501;51.214;6.768;2023-12-29T00:27:43;100718.66;;;10.32;100.00
4972;BME280;2501;51.214;6.768;2023-12-29T00:30:12;100705.47;;;10.25;100.00
4972;BME280;2501;51.214;6.768;2023-12-29T00:32:43;100717.78;;;10.32;100.00
4972;BME280;2501;51.214;6.768;2023-12-29T00:35:11;100718.63;;;10.31;100.00
4972;BME280;2501;51.214;6.768;2023-12-29T00:37:40;100709.97;;;10.45;100.00
4972;BME280;2501;51.214;6.768;2023-12-29T00:40:09;100713.44;;;10.41;100.00
4972;BME280;2501;51.214;6.768;2023-12-29T00:42:38;100708.19;;;10.37;100.00
4972;BME280;2501;51.214;6.768;2023-12-29T00:45:07;100706.50;;;10.48;100.00
4972;BME280;2501;51.214;6.768;2023-12-29T00:47:35;100709.19;;;10.56;100.00
4972;BME280;2501;51.214;6.768;2023-12-29T00:50:07;100710.84;;;10.46;100.00
4972;BME280;2501;51.214;6.768;2023-12-29T00:52:35;100701.31;;;10.54;100.00
4972;BME280;2501;51.214;6.768;2023-12-29T00:55:05;100696.06;;;10.60;100.00
4972;BME280;2501;51.214;6.768;2023-12-29T00:57:33;100684.75;;;10.66;100.00
4972;BME280;2501;51.214;6.768;2023-12-29T01:00:02;100685.59;;;10.63;100.00
4972;BME280;2501;51.214;6.768;2023-12-29T01:02:31;100683.72;;;10.41;100.00
4972;BME280;2501;51.214;6.768;2023-12-29T01:04:59;100688.06;;;10.31;100.00
4972;BME280;2501;51.214;6.768;2023-12-29T01:07:30;100681.97;;;10.34;100.00
4972;BME280;2501;51.214;6.768;2023-12-29T01:09:59;100679.34;;;10.32;100.00
4972;BME280;2501;51.214;6.768;2023-12-29T01:12:27;100675.81;;;10.30;100.00
4972;BME280;2501;51.214;6.768;2023-12-29T01:14:55;100671.50;;;10.37;100.00
4972;BME280;2501;51.214;6.768;2023-12-29T01:17:24;100681.94;;;10.31;100.00
4972;BME280;2501;51.214;6.768;2023-12-29T01:19:53;100665.38;;;10.39;100.00
4972;BME280;2501;51.214;6.768;2023-12-29T01:22:22;100659.31;;;10.50;100.00
4972;BME280;2501;51.214;6.768;2023-12-29T01:24:53;100656.69;;;10.50;100.00
4972;BME280;2501;51.214;6.768;2023-12-29T01:27:21;100659.19;;;10.27;100.00
4972;BME280;2501;51.214;6.768;2023-12-29T01:29:50;100659.22;;;10.31;100.00
4972;BME280;2501;51.214;6.768;2023-12-29T01:32:18;100652.28;;;10.38;100.00
4972;BME280;2501;51.214;6.768;2023-12-29T01:34:47;100661.94;;;10.50;100.00
4972;BME280;2501;51.214;6.768;2023-12-29T01:37:15;100661.06;;;10.51;100.00
4972;BME280;2501;51.214;6.768;2023-12-29T01:39:44;100648.78;;;10.37;100.00
4972;BME280;2501;51.214;6.768;2023-12-29T01:42:15;100651.44;;;10.46;100.00
4972;BME280;2501;51.214;6.768;2023-12-29T01:44:43;100648.88;;;10.62;100.00
4972;BME280;2501;51.214;6.768;2023-12-29T01:47:14;100647.03;;;10.44;100.00
4972;BME280;2501;51.214;6.768;2023-12-29T01:49:45;100643.50;;;10.33;100.00
4972;BME280;2501;51.214;6.768;2023-12-29T01:52:14;100640.03;;;10.40;100.00
4972;BME280;2501;51.214;6.768;2023-12-29T01:54:46;100640.81;;;10.24;100.00
4972;BME280;2501;51.214;6.768;2023-12-29T01:57:19;100642.69;;;10.48;100.00
4972;BME280;2501;51.214;6.768;2023-12-29T01:59:48;100638.22;;;10.25;100.00
4972;BME280;2501;51.214;6.768;2023-12-29T02:02:17;100638.25;;;10.31;100.00
4972;BME280;2501;51.214;6.768;2023-12-29T02:04:46;100647.84;;;10.29;100.00
4972;BME280;2501;51.214;6.768;2023-12-29T02:07:14;100647.00;;;10.32;100.00
4972;BME280;2501;51.214;6.768;2023-12-29T02:09:44;100642.63;;;10.31;100.00
4972;BME280;2501;51.214;6.768;2023-12-29T02:12:13;100640.81;;;10.24;100.00
4972;BME280;2501;51.214;6.768;2023-12-29T02:14:44;100647.91;;;10.41;100.00
4972;BME280;2501;51.214;6.768;2023-12-29T02:17:18;100644.38;;;10.32;100.00
4972;BME280;2501;51.214;6.768;2023-12-29T02:19:49;100651.34;;;10.31;100.00
4972;BME280;2501;51.214;6.768;2023-12-29T02:22:18;100648.66;;;10.22;100.00
4972;BME280;2501;51.214;6.768;2023-12-29T02:24:49;100653.88;;;10.18;100.00
4972;BME280;2501;51.214;6.768;2023-12-29T02:27:28;100645.88;;;9.98;100.00
4972;BME280;2501;51.214;6.768;2023-12-29T02:30:08;100645.03;;;10.02;100.00
4972;BME280;2501;51.214;6.768;2023-12-29T02:32:39;100643.53;;;10.36;100.00
4972;BME280;2501;51.214;6.768;2023-12-29T02:35:11;100636.31;;;10.06;100.00
4972;BME280;2501;51.214;6.768;2023-12-29T02:37:42;100648.72;;;10.28;100.00
4972;BME280;2501;51.214;6.768;2023-12-29T02:40:14;100626.75;;;10.14;100.00
4972;BME280;2501;51.214;6.768;2023-12-29T02:42:46;100633.69;;;10.03;100.00
4972;BME280;2501;51.214;6.768;2023-12-29T02:45:15;100627.47;;;9.89;100.00
4972;BME280;2501;51.214;6.768;2023-12-29T02:47:44;100628.41;;;9.97;100.00
4972;BME280;2501;51.214;6.768;2023-12-29T02:50:13;100631.09;;;10.09;100.00
4972;BME280;2501;51.214;6.768;2023-12-29T02:52:41;100616.13;;;9.87;100.00
4972;BME280;2501;51.214;6.768;2023-12-29T02:55:12;100610.03;;;9.92;100.00
4972;BME280;2501;51.214;6.768;2023-12-29T02:57:41;100609.16;;;9.92;100.00
4972;BME280;2501;51.214;6.768;2023-12-29T03:00:10;100603.00;;;9.88;100.00
4972;BME280;2501;51.214;6.768;2023-12-29T03:02:39;100592.50;;;9.81;100.00
4972;BME280;2501;51.214;6.768;2023-12-29T03:05:08;100599.56;;;9.94;100.00
4972;BME280;2501;51.214;6.768;2023-12-29T03:07:37;100600.50;;;10.03;100.00
4972;BME280;2501;51.214;6.768;2023-12-29T03:10:07;100610.19;;;10.17;100.00
4972;BME280;2501;51.214;6.768;2023-12-29T03:12:38;100608.25;;;9.90;100.00
4972;BME280;2501;51.214;6.768;2023-12-29T03:15:07;100585.50;;;9.80;100.00
4972;BME280;2501;51.214;6.768;2023-12-29T03:17:35;100588.16;;;9.87;100.00
4972;BME280;2501;51.214;6.768;2023-12-29T03:20:05;100593.41;;;9.83;100.00
4972;BME280;2501;51.214;6.768;2023-12-29T03:22:34;100595.16;;;9.90;100.00
4972;BME280;2501;51.214;6.768;2023-12-29T03:25:02;100586.44;;;9.91;100.00
4972;BME280;2501;51.214;6.768;2023-12-29T03:27:28;100588.28;;;10.04;100.00
4972;BME280;2501;51.214;6.768;2023-12-29T03:29:59;100577.72;;;9.92;100.00
4972;BME280;2501;51.214;6.768;2023-12-29T03:32:28;100584.72;;;9.94;100.00
4972;BME280;2501;51.214;6.768;2023-12-29T03:34:56;100596.19;;;10.13;100.00
4972;BME280;2501;51.214;6.768;2023-12-29T03:37:24;100592.66;;;10.08;100.00
4972;BME280;2501;51.214;6.768;2023-12-29T03:39:53;100590.91;;;10.08;100.00
4972;BME280;2501;51.214;6.768;2023-12-29T03:42:22;100584.84;;;10.14;100.00
4972;BME280;2501;51.214;6.768;2023-12-29T03:44:50;100583.22;;;10.34;100.00
4972;BME280;2501;51.214;6.768;2023-12-29T03:47:21;100595.28;;;10.08;100.00
4972;BME280;2501;51.214;6.768;2023-12-29T03:49:50;100593.63;;;10.19;100.00
4972;BME280;2501;51.214;6.768;2023-12-29T03:52:18;100585.69;;;10.11;100.00
4972;BME280;2501;51.214;6.768;2023-12-29T03:54:46;100573.47;;;10.12;100.00
4972;BME280;2501;51.214;6.768;2023-12-29T03:57:15;100569.97;;;10.13;100.00
4972;BME280;2501;51.214;6.768;2023-12-29T03:59:43;100572.59;;;10.11;100.00
4972;BME280;2501;51.214;6.768;2023-12-29T04:02:11;100571.75;;;10.17;100.00
4972;BME280;2501;51.214;6.768;2023-12-29T04:04:43;100578.81;;;10.29;100.00
4972;BME280;2501;51.214;6.768;2023-12-29T04:07:11;100569.16;;;10.22;100.00
4972;BME280;2501;51.214;6.768;2023-12-29T04:09:39;100572.69;;;10.25;100.00
4972;BME280;2501;51.214;6.768;2023-12-29T04:12:08;100573.63;;;10.41;100.00
4972;BME280;2501;51.214;6.768;2023-12-29T04:14:36;100570.13;;;10.39;100.00
4972;BME280;2501;51.214;6.768;2023-12-29T04:17:05;100573.69;;;10.55;100.00
4972;BME280;2501;51.214;6.768;2023-12-29T04:19:42;100567.47;;;10.30;100.00
4972;BME280;2501;51.214;6.768;2023-12-29T04:22:10;100571.00;;;10.45;100.00
4972;BME280;2501;51.214;6.768;2023-12-29T04:24:38;100587.66;;;10.60;100.00
4972;BME280;2501;51.214;6.768;2023-12-29T04:27:07;100579.72;;;10.41;100.00
4972;BME280;2501;51.214;6.768;2023-12-29T04:29:36;100571.88;;;10.37;100.00
4972;BME280;2501;51.214;6.768;2023-12-29T04:32:04;100567.38;;;10.18;100.00
4972;BME280;2501;51.214;6.768;2023-12-29T04:34:33;100570.16;;;10.50;100.00
4972;BME280;2501;51.214;6.768;2023-12-29T04:37:04;100569.97;;;10.11;100.00
4972;BME280;2501;51.214;6.768;2023-12-29T04:39:32;100581.28;;;10.03;100.00
4972;BME280;2501;51.214;6.768;2023-12-29T04:42:01;100575.16;;;10.05;100.00
4972;BME280;2501;51.214;6.768;2023-12-29T04:44:29;100589.19;;;10.10;100.00
4972;BME280;2501;51.214;6.768;2023-12-29T04:46:58;100581.28;;;10.04;100.00
4972;BME280;2501;51.214;6.768;2023-12-29T04:49:26;100587.53;;;10.26;100.00
4972;BME280;2501;51.214;6.768;2023-12-29T04:51:55;100594.56;;;10.32;100.00
4972;BME280;2501;51.214;6.768;2023-12-29T04:54:26;100596.22;;;10.18;100.00
4972;BME280;2501;51.214;6.768;2023-12-29T04:56:54;100604.13;;;10.24;100.00
4972;BME280;2501;51.214;6.768;2023-12-29T04:59:23;100594.50;;;10.24;100.00
4972;BME280;2501;51.214;6.768;2023-12-29T05:01:51;100598.81;;;10.15;100.00
4972;BME280;2501;51.214;6.768;2023-12-29T05:04:20;100596.19;;;10.15;100.00
4972;BME280;2501;51.214;6.768;2023-12-29T05:06:48;100591.78;;;10.10;100.00
4972;BME280;2501;51.214;6.768;2023-12-29T05:09:17;100592.75;;;10.23;100.00
4972;BME280;2501;51.214;6.768;2023-12-29T05:11:48;100596.28;;;10.27;100.00
4972;BME280;2501;51.214;6.768;2023-12-29T05:14:17;100588.28;;;10.08;100.00
4972;BME280;2501;51.214;6.768;2023-12-29T05:16:45;100583.94;;;10.12;100.00
4972;BME280;2501;51.214;6.768;2023-12-29T05:19:13;100580.50;;;10.18;100.00
4972;BME280;2501;51.214;6.768;2023-12-29T05:21:42;100593.53;;;10.04;100.00
4972;BME280;2501;51.214;6.768;2023-12-29T05:24:11;100577.09;;;10.34;100.00
4972;BME280;2501;51.214;6.768;2023-12-29T05:26:39;100587.53;;;10.25;100.00
4972;BME280;2501;51.214;6.768;2023-12-29T05:29:11;100594.47;;;10.17;100.00
4972;BME280;2501;51.214;6.768;2023-12-29T05:31:39;100588.44;;;10.30;100.00
4972;BME280;2501;51.214;6.768;2023-12-29T05:34:07;100603.13;;;10.08;100.00
4972;BME280;2501;51.214;6.768;2023-12-29T05:36:36;100606.69;;;10.16;100.00
4972;BME280;2501;51.214;6.768;2023-12-29T05:39:05;100581.25;;;9.98;100.00
4972;BME280;2501;51.214;6.768;2023-12-29T05:41:34;100596.94;;;9.92;100.00
4972;BME280;2501;51.214;6.768;2023-12-29T05:44:03;100590.00;;;9.99;100.00
4972;BME280;2501;51.214;6.768;2023-12-29T05:46:34;100590.03;;;10.06;100.00
4972;BME280;2501;51.214;6.768;2023-12-29T05:49:03;100588.22;;;9.93;100.00
4972;BME280;2501;51.214;6.768;2023-12-29T05:51:31;100583.88;;;9.97;100.00
4972;BME280;2501;51.214;6.768;2023-12-29T05:54:00;100580.34;;;9.92;100.00
4972;BME280;2501;51.214;6.768;2023-12-29T05:56:28;100582.94;;;9.87;100.00
4972;BME280;2501;51.214;6.768;2023-12-29T05:58:57;100575.06;;;9.84;100.00
4972;BME280;2501;51.214;6.768;2023-12-29T06:01:26;100574.19;;;9.88;100.00
4972;BME280;2501;51.214;6.768;2023-12-29T06:03:57;100592.56;;;9.87;100.00
4972;BME280;2501;51.214;6.768;2023-12-29T06:06:25;100589.97;;;9.94;100.00
4972;BME280;2501;51.214;6.768;2023-12-29T06:08:54;100590.78;;;9.83;100.00
4972;BME280;2501;51.214;6.768;2023-12-29T06:11:22;100601.22;;;9.78;100.00
4972;BME280;2501;51.214;6.768;2023-12-29T06:13:51;100595.09;;;9.77;100.00
4972;BME280;2501;51.214;6.768;2023-12-29T06:16:20;100589.94;;;9.91;100.00
4972;BME280;2501;51.214;6.768;2023-12-29T06:18:50;100593.41;;;9.83;100.00
4972;BME280;2501;51.214;6.768;2023-12-29T06:21:21;100602.94;;;9.74;100.00
4972;BME280;2501;51.214;6.768;2023-12-29T06:23:50;100607.34;;;9.82;100.00
4972;BME280;2501;51.214;6.768;2023-12-29T06:26:19;100597.66;;;9.70;100.00
4972;BME280;2501;51.214;6.768;2023-12-29T06:28:48;100594.19;;;9.72;100.00
4972;BME280;2501;51.214;6.768;2023-12-29T06:31:17;100599.56;;;9.94;100.00
4972;BME280;2501;51.214;6.768;2023-12-29T06:33:46;100609.13;;;9.89;100.00
4972;BME280;2501;51.214;6.768;2023-12-29T06:36:14;100610.09;;;10.00;100.00
4972;BME280;2501;51.214;6.768;2023-12-29T06:38:45;100608.22;;;9.81;100.00
4972;BME280;2501;51.214;6.768;2023-12-29T06:41:16;100591.69;;;9.91;100.00
4972;BME280;2501;51.214;6.768;2023-12-29T06:43:44;100593.44;;;9.93;100.00
4972;BME280;2501;51.214;6.768;2023-12-29T06:46:13;100605.66;;;9.91;100.00
4972;BME280;2501;51.214;6.768;2023-12-29T06:48:41;100604.88;;;10.09;100.00
4972;BME280;2501;51.214;6.768;2023-12-29T06:51:15;100598.69;;;9.93;100.00
4972;BME280;2501;51.214;6.768;2023-12-29T06:53:48;100599.56;;;9.92;100.00
4972;BME280;2501;51.214;6.768;2023-12-29T06:56:17;100597.00;;;10.06;100.00
4972;BME280;2501;51.214;6.768;2023-12-29T06:58:46;100594.47;;;10.18;100.00
4972;BME280;2501;51.214;6.768;2023-12-29T07:01:15;100588.28;;;10.07;100.00
4972;BME280;2501;51.214;6.768;2023-12-29T07:03:44;100589.22;;;10.15;100.00
4972;BME280;2501;51.214;6.768;2023-12-29T07:06:12;100595.25;;;10.06;100.00
4972;BME280;2501;51.214;6.768;2023-12-29T07:08:41;100594.34;;;9.97;100.00
4972;BME280;2501;51.214;6.768;2023-12-29T07:11:12;100585.66;;;10.08;100.00
4972;BME280;2501;51.214;6.768;2023-12-29T07:13:41;100583.91;;;10.03;100.00
4972;BME280;2501;51.214;6.768;2023-12-29T07:16:09;100586.47;;;9.94;100.00
4972;BME280;2501;51.214;6.768;2023-12-29T07:18:38;100584.84;;;10.17;100.00
4972;BME280;2501;51.214;6.768;2023-12-29T07:21:07;100590.00;;;10.00;100.00
4972;BME280;2501;51.214;6.768;2023-12-29T07:23:37;100604.94;;;10.15;100.00
4972;BME280;2501;51.214;6.768;2023-12-29T07:26:06;100609.28;;;10.11;100.00
4972;BME280;2501;51.214;6.768;2023-12-29T07:28:37;100590.16;;;10.25;100.00
4972;BME280;2501;51.214;6.768;2023-12-29T07:31:05;100592.84;;;10.37;100.00
4972;BME280;2501;51.214;6.768;2023-12-29T07:33:34;100598.91;;;10.28;100.00
4972;BME280;2501;51.214;6.768;2023-12-29T07:36:03;100599.78;;;10.27;100.00
4972;BME280;2501;51.214;6.768;2023-12-29T07:38:32;100604.22;;;10.37;100.00
4972;BME280;2501;51.214;6.768;2023-12-29T07:41:01;100596.28;;;10.27;100.00
4972;BME280;2501;51.214;6.768;2023-12-29T07:43:26;100599.75;;;10.24;100.00
4972;BME280;2501;51.214;6.768;2023-12-29T07:45:58;100615.44;;;10.17;100.00
4972;BME280;2501;51.214;6.768;2023-12-29T07:48:26;100602.25;;;10.06;100.00
4972;BME280;2501;51.214;6.768;2023-12-29T07:50:57;100605.72;;;9.97;100.00
4972;BME280;2501;51.214;6.768;2023-12-29T07:53:26;100594.25;;;9.78;100.00
4972;BME280;2501;51.214;6.768;2023-12-29T07:55:55;100587.09;;;9.56;100.00
4972;BME280;2501;51.214;6.768;2023-12-29T07:58:24;100586.13;;;9.43;100.00
4972;BME280;2501;51.214;6.768;2023-12-29T08:00:52;100573.84;;;9.38;100.00
4972;BME280;2501;51.214;6.768;2023-12-29T08:03:23;100574.69;;;9.31;100.00
4972;BME280;2501;51.214;6.768;2023-12-29T08:05:52;100586.06;;;9.33;100.00
4972;BME280;2501;51.214;6.768;2023-12-29T08:08:20;100596.47;;;9.28;100.00
4972;BME280;2501;51.214;6.768;2023-12-29T08:10:49;100603.44;;;9.28;100.00
4972;BME280;2501;51.214;6.768;2023-12-29T08:13:17;100606.91;;;9.24;100.00
4972;BME280;2501;51.214;6.768;2023-12-29T08:15:45;100604.38;;;9.34;100.00
4972;BME280;2501;51.214;6.768;2023-12-29T08:18:14;100610.34;;;9.20;100.00
4972;BME280;2501;51.214;6.768;2023-12-29T08:20:46;100623.41;;;9.17;100.00
4972;BME280;2501;51.214;6.768;2023-12-29T08:23:14;100627.00;;;9.28;100.00
4972;BME280;2501;51.214;6.768;2023-12-29T08:25:43;100620.81;;;9.20;100.00
4972;BME280;2501;51.214;6.768;2023-12-29T08:28:11;100633.13;;;9.30;100.00
4972;BME280;2501;51.214;6.768;2023-12-29T08:30:40;100623.41;;;9.18;100.00
4972;BME280;2501;51.214;6.768;2023-12-29T08:33:11;100631.09;;;9.03;100.00
4972;BME280;2501;51.214;6.768;2023-12-29T08:35:41;100633.75;;;9.06;100.00
4972;BME280;2501;51.214;6.768;2023-12-29T08:38:12;100631.91;;;8.94;100.00
4972;BME280;2501;51.214;6.768;2023-12-29T08:40:41;100625.84;;;8.98;100.00
4972;BME280;2501;51.214;6.768;2023-12-29T08:43:10;100617.06;;;8.92;100.00
4972;BME280;2501;51.214;6.768;2023-12-29T08:45:38;100625.84;;;8.98;100.00
4972;BME280;2501;51.214;6.768;2023-12-29T08:48:07;100608.31;;;8.90;100.00
4972;BME280;2501;51.214;6.768;2023-12-29T08:50:35;100605.66;;;8.87;100.00
4972;BME280;2501;51.214;6.768;2023-12-29T08:53:04;100619.63;;;8.87;100.00
4972;BME280;2501;51.214;6.768;2023-12-29T08:55:35;100627.41;;;8.81;100.00
4972;BME280;2501;51.214;6.768;2023-12-29T08:58:03;100636.16;;;8.85;100.00
4972;BME280;2501;51.214;6.768;2023-12-29T09:00:32;100638.75;;;8.83;100.00
4972;BME280;2501;51.214;6.768;2023-12-29T09:03:00;100640.50;;;8.81;100.00
4972;BME280;2501;51.214;6.768;2023-12-29T09:05:29;100645.78;;;8.89;100.00
4972;BME280;2501;51.214;6.768;2023-12-29T09:07:58;100654.47;;;8.86;100.00
4972;BME280;2501;51.214;6.768;2023-12-29T09:10:26;100650.13;;;8.87;100.00
4972;BME280;2501;51.214;6.768;2023-12-29T09:12:57;100645.78;;;8.87;100.00
4972;BME280;2501;51.214;6.768;2023-12-29T09:15:26;100649.25;;;8.88;100.00
4972;BME280;2501;51.214;6.768;2023-12-29T09:17:54;100638.75;;;8.83;100.00
4972;BME280;2501;51.214;6.768;2023-12-29T09:20:23;100635.25;;;8.84;100.00
4972;BME280;2501;51.214;6.768;2023-12-29T09:22:51;100637.09;;;8.91;100.00
4972;BME280;2501;51.214;6.768;2023-12-29T09:25:21;100643.25;;;8.95;100.00
4972;BME280;2501;51.214;6.768;2023-12-29T09:27:49;100638.94;;;9.01;100.00
4972;BME280;2501;51.214;6.768;2023-12-29T09:30:20;100629.34;;;8.97;100.00
4972;BME280;2501;51.214;6.768;2023-12-29T09:32:49;100627.75;;;9.15;100.00
4972;BME280;2501;51.214;6.768;2023-12-29T09:35:17;100638.22;;;9.13;100.00
4972;BME280;2501;51.214;6.768;2023-12-29T09:37:47;100639.06;;;9.12;100.00
4972;BME280;2501;51.214;6.768;2023-12-29T09:40:15;100653.06;;;9.19;100.00
4972;BME280;2501;51.214;6.768;2023-12-29T09:42:44;100655.69;;;9.17;100.00
4972;BME280;2501;51.214;6.768;2023-12-29T09:45:14;100653.00;;;9.10;100.00
4972;BME280;2501;51.214;6.768;2023-12-29T09:47:51;100652.88;;;8.99;100.00
4972;BME280;2501;51.214;6.768;2023-12-29T09:50:21;100656.47;;;9.10;100.00
4972;BME280;2501;51.214;6.768;2023-12-29T09:52:49;100647.63;;;8.97;100.00
4972;BME280;2501;51.214;6.768;2023-12-29T09:55:19;100647.66;;;8.99;100.00
4972;BME280;2501;51.214;6.768;2023-12-29T09:57:49;100657.25;;;9.00;100.00
4972;BME280;2501;51.214;6.768;2023-12-29T10:00:18;100652.88;;;9.00;100.00
4972;BME280;2501;51.214;6.768;2023-12-29T10:02:52;100649.41;;;9.01;100.00
4972;BME280;2501;51.214;6.768;2023-12-29T10:05:21;100656.66;;;9.27;100.00
4972;BME280;2501;51.214;6.768;2023-12-29T10:07:50;100660.03;;;9.15;100.00
4972;BME280;2501;51.214;6.768;2023-12-29T10:10:21;100653.13;;;9.25;100.00
4972;BME280;2501;51.214;6.768;2023-12-29T10:12:51;100646.97;;;9.18;100.00
4972;BME280;2501;51.214;6.768;2023-12-29T10:15:24;100655.84;;;9.34;100.00
4972;BME280;2501;51.214;6.768;2023-12-29T10:18:07;100656.72;;;9.33;100.00
4972;BME280;2501;51.214;6.768;2023-12-29T10:20:44;100658.56;;;9.45;100.00
4972;BME280;2501;51.214;6.768;2023-12-29T10:23:17;100661.97;;;9.33;100.00
4972;BME280;2501;51.214;6.768;2023-12-29T10:25:48;100657.63;;;9.39;100.00
4972;BME280;2501;51.214;6.768;2023-12-29T10:28:17;100654.41;;;9.66;100.00
4972;BME280;2501;51.214;6.768;2023-12-29T10:30:45;100658.88;;;9.83;100.00
4972;BME280;2501;51.214;6.768;2023-12-29T10:33:22;100671.66;;;9.46;100.00
4972;BME280;2501;51.214;6.768;2023-12-29T10:35:57;100655.38;;;9.81;100.00
4972;BME280;2501;51.214;6.768;2023-12-29T10:38:28;100652.88;;;9.97;100.00
4972;BME280;2501;51.214;6.768;2023-12-29T10:41:10;100645.84;;;9.93;100.00
4972;BME280;2501;51.214;6.768;2023-12-29T10:43:40;100645.72;;;9.75;100.00
4972;BME280;2501;51.214;6.768;2023-12-29T10:46:10;100641.44;;;9.88;100.00
4972;BME280;2501;51.214;6.768;2023-12-29T10:48:41;100633.44;;;9.66;100.00
4972;BME280;2501;51.214;6.768;2023-12-29T10:51:10;100648.06;;;9.43;100.00
4972;BME280;2501;51.214;6.768;2023-12-29T10:53:38;100648.81;;;9.28;100.00
4972;BME280;2501;51.214;6.768;2023-12-29T10:56:16;100626.28;;;9.46;100.00
4972;BME280;2501;51.214;6.768;2023-12-29T10:58:57;100631.84;;;9.91;100.00
4972;BME280;2501;51.214;6.768;2023-12-29T11:01:26;100631.56;;;9.49;100.00
4972;BME280;2501;51.214;6.768;2023-12-29T11:04:05;100621.09;;;9.50;100.00
4972;BME280;2501;51.214;6.768;2023-12-29T11:06:40;100616.03;;;9.76;100.00
4972;BME280;2501;51.214;6.768;2023-12-29T11:09:10;100621.16;;;9.59;100.00
4972;BME280;2501;51.214;6.768;2023-12-29T11:11:39;100623.03;;;9.75;100.00
4972;BME280;2501;51.214;6.768;2023-12-29T11:14:10;100628.22;;;9.68;100.00
4972;BME280;2501;51.214;6.768;2023-12-29T11:16:39;100626.69;;;9.99;100.00
4972;BME280;2501;51.214;6.768;2023-12-29T11:19:12;100632.03;;;10.16;100.00
4972;BME280;2501;51.214;6.768;2023-12-29T11:21:42;100624.97;;;10.04;100.00
4972;BME280;2501;51.214;6.768;2023-12-29T11:24:11;100631.22;;;10.24;100.00
4972;BME280;2501;51.214;6.768;2023-12-29T11:26:40;100622.63;;;10.54;100.00
4972;BME280;2501;51.214;6.768;2023-12-29T11:29:09;100617.38;;;10.59;100.00
4972;BME280;2501;51.214;6.768;2023-12-29T11:31:39;100619.22;;;10.82;100.00
4972;BME280;2501;51.214;6.768;2023-12-29T11:34:14;100617.44;;;10.74;100.00
4972;BME280;2501;51.214;6.768;2023-12-29T11:36:46;100618.38;;;10.97;100.00
4972;BME280;2501;51.214;6.768;2023-12-29T11:39:19;100609.63;;;10.97;100.00
4972;BME280;2501;51.214;6.768;2023-12-29T11:41:54;100612.28;;;11.07;100.00
4972;BME280;2501;51.214;6.768;2023-12-29T11:44:25;100608.72;;;10.84;100.00
4972;BME280;2501;51.214;6.768;2023-12-29T11:46:56;100605.19;;;10.68;100.00
4972;BME280;2501;51.214;6.768;2023-12-29T11:50:00;100615.72;;;10.91;100.00
4972;BME280;2501;51.214;6.768;2023-12-29T11:52:39;100599.84;;;10.36;100.00
4972;BME280;2501;51.214;6.768;2023-12-29T11:55:08;100603.44;;;10.69;100.00
4972;BME280;2501;51.214;6.768;2023-12-29T11:57:37;100617.38;;;10.50;100.00
4972;BME280;2501;51.214;6.768;2023-12-29T12:00:08;100605.16;;;10.55;100.00
4972;BME280;2501;51.214;6.768;2023-12-29T12:02:37;100614.00;;;10.90;100.00
4972;BME280;2501;51.214;6.768;2023-12-29T12:05:10;100611.19;;;10.37;100.00
4972;BME280;2501;51.214;6.768;2023-12-29T12:07:57;100603.19;;;10.17;100.00
4972;BME280;2501;51.214;6.768;2023-12-29T12:10:29;100603.09;;;9.99;100.00
4972;BME280;2501;51.214;6.768;2023-12-29T12:12:58;100594.31;;;9.91;100.00
4972;BME280;2501;51.214;6.768;2023-12-29T12:15:33;100585.66;;;10.04;100.00
4972;BME280;2501;51.214;6.768;2023-12-29T12:18:04;100578.72;;;10.12;100.00
4972;BME280;2501;51.214;6.768;2023-12-29T12:20:38;100603.94;;;9.93;100.00
4972;BME280;2501;51.214;6.768;2023-12-29T12:23:17;100596.84;;;9.77;100.00
4972;BME280;2501;51.214;6.768;2023-12-29T12:25:46;100593.44;;;9.92;100.00
4972;BME280;2501;51.214;6.768;2023-12-29T12:28:15;100596.03;;;9.84;100.00
4972;BME280;2501;51.214;6.768;2023-12-29T12:30:43;100583.94;;;10.10;100.00
4972;BME280;2501;51.214;6.768;2023-12-29T12:33:12;100582.22;;;10.17;100.00
4972;BME280;2501;51.214;6.768;2023-12-29T12:35:44;100578.72;;;10.12;100.00
4972;BME280;2501;51.214;6.768;2023-12-29T12:38:15;100582.22;;;10.14;100.00
4972;BME280;2501;51.214;6.768;2023-12-29T12:40:47;100574.44;;;10.26;100.00
4972;BME280;2501;51.214;6.768;2023-12-29T12:43:17;100579.78;;;10.60;100.00
4972;BME280;2501;51.214;6.768;2023-12-29T12:45:48;100562.38;;;10.71;100.00
4972;BME280;2501;51.214;6.768;2023-12-29T12:48:23;100568.34;;;10.39;100.00
4972;BME280;2501;51.214;6.768;2023-12-29T12:50:55;100568.31;;;10.27;100.00
4972;BME280;2501;51.214;6.768;2023-12-29T12:53:25;100575.25;;;10.16;100.00
4972;BME280;2501;51.214;6.768;2023-12-29T12:55:54;100576.06;;;10.09;100.00
4972;BME280;2501;51.214;6.768;2023-12-29T12:58:23;100571.00;;;10.36;100.00
4972;BME280;2501;51.214;6.768;2023-12-29T13:00:57;100569.97;;;10.10;100.00
4972;BME280;2501;51.214;6.768;2023-12-29T13:03:25;100566.56;;;10.19;100.00
4972;BME280;2501;51.214;6.768;2023-12-29T13:05:57;100557.75;;;10.15;100.00
4972;BME280;2501;51.214;6.768;2023-12-29T13:08:27;100563.81;;;10.02;100.00
4972;BME280;2501;51.214;6.768;2023-12-29T13:10:56;100553.31;;;9.97;100.00
4972;BME280;2501;51.214;6.768;2023-12-29T13:13:35;100548.16;;;10.14;100.00
4972;BME280;2501;51.214;6.768;2023-12-29T13:16:05;100547.28;;;10.17;100.00
4972;BME280;2501;51.214;6.768;2023-12-29T13:18:33;100546.34;;;10.05;100.00